sensor_id;sensor_type;location;lat;lon;timestamp;pressure;altitude;pressure_sealevel;temperature;humidity
31357;BME280;60001;48.404;11.738;2023-04-27T00:01:27;96347.09;;;8.18;69.19
31357;BME280;60001;48.404;11.738;2023-04-27T00:02:59;96338.50;;;7.94;69.72
31357;BME280;60001;48.404;11.738;2023-04-27T00:04:36;96346.91;;;8.08;69.77
31357;BME280;60001;48.404;11.738;2023-04-27T00:06:08;96344.84;;;8.10;69.80
31357;BME280;60001;48.404;11.738;2023-04-27T00:07:39;96349.91;;;8.00;69.73
31357;BME280;60001;48.404;11.738;2023-04-27T00:09:11;96323.91;;;7.75;70.20
31357;BME280;60001;48.404;11.738;2023-04-27T00:10:43;96352.06;;;7.51;72.35
31357;BME280;60001;48.404;11.738;2023-04-27T00:12:15;96343.13;;;7.63;71.65
31357;BME280;60001;48.404;11.738;2023-04-27T00:13:46;96350.81;;;7.65;71.88
31357;BME280;60001;48.404;11.738;2023-04-27T00:15:17;96351.94;;;7.69;71.91
31357;BME280;60001;48.404;11.738;2023-04-27T00:16:49;96356.25;;;7.75;71.67
31357;BME280;60001;48.404;11.738;2023-04-27T00:18:20;96360.34;;;7.83;71.10
31357;BME280;60001;48.404;11.738;2023-04-27T00:19:53;96342.44;;;7.80;71.31
31357;BME280;60001;48.404;11.738;2023-04-27T00:21:25;96330.66;;;7.82;70.75
31357;BME280;60001;48.404;11.738;2023-04-27T00:22:57;96354.72;;;7.91;70.25
31357;BME280;60001;48.404;11.738;2023-04-27T00:24:29;96349.31;;;7.69;72.00
31357;BME280;60001;48.404;11.738;2023-04-27T00:26:00;96347.03;;;7.61;71.90
31357;BME280;60001;48.404;11.738;2023-04-27T00:27:32;96353.41;;;7.77;71.22
31357;BME280;60001;48.404;11.738;2023-04-27T00:29:04;96347.22;;;7.83;70.71
31357;BME280;60001;48.404;11.738;2023-04-27T00:30:36;96339.47;;;8.05;68.57
31357;BME280;60001;48.404;11.738;2023-04-27T00:32:08;96342.59;;;8.02;68.55
31357;BME280;60001;48.404;11.738;2023-04-27T00:33:40;96317.59;;;7.87;67.35
31357;BME280;60001;48.404;11.738;2023-04-27T00:35:13;96338.78;;;8.09;66.19
31357;BME280;60001;48.404;11.738;2023-04-27T00:36:45;96334.59;;;7.96;66.14
31357;BME280;60001;48.404;11.738;2023-04-27T00:38:17;96346.91;;;8.08;66.49
31357;BME280;60001;48.404;11.738;2023-04-27T00:39:49;96343.16;;;8.04;66.80
31357;BME280;60001;48.404;11.738;2023-04-27T00:41:20;96340.63;;;8.09;67.29
31357;BME280;60001;48.404;11.738;2023-04-27T00:42:53;96352.44;;;7.94;68.09
31357;BME280;60001;48.404;11.738;2023-04-27T00:44:26;96356.69;;;7.84;69.61
31357;BME280;60001;48.404;11.738;2023-04-27T00:45:58;96351.31;;;7.90;69.65
31357;BME280;60001;48.404;11.738;2023-04-27T00:47:30;96333.81;;;7.84;68.80
31357;BME280;60001;48.404;11.738;2023-04-27T00:49:03;96337.03;;;7.86;69.71
31357;BME280;60001;48.404;11.738;2023-04-27T00:50:36;96351.41;;;7.95;70.38
31357;BME280;60001;48.404;11.738;2023-04-27T00:52:09;96347.06;;;8.01;70.20
31357;BME280;60001;48.404;11.738;2023-04-27T00:53:40;96349.75;;;8.06;70.12
31357;BME280;60001;48.404;11.738;2023-04-27T00:55:12;96353.66;;;8.04;70.15
31357;BME280;60001;48.404;11.738;2023-04-27T00:56:44;96342.63;;;7.78;71.49
31357;BME280;60001;48.404;11.738;2023-04-27T00:58:18;96342.09;;;7.76;70.73
31357;BME280;60001;48.404;11.738;2023-04-27T00:59:50;96342.47;;;7.56;72.06
31357;BME280;60001;48.404;11.738;2023-04-27T01:01:22;96353.06;;;7.73;72.13
31357;BME280;60001;48.404;11.738;2023-04-27T01:02:54;96348.44;;;7.92;71.06
31357;BME280;60001;48.404;11.738;2023-04-27T01:04:26;96340.66;;;7.97;70.94
31357;BME280;60001;48.404;11.738;2023-04-27T01:06:00;96335.53;;;7.90;70.36
31357;BME280;60001;48.404;11.738;2023-04-27T01:07:32;96341.22;;;7.99;69.90
31357;BME280;60001;48.404;11.738;2023-04-27T01:09:03;96317.13;;;7.90;70.05
31357;BME280;60001;48.404;11.738;2023-04-27T01:10:36;96340.47;;;7.87;69.49
31357;BME280;60001;48.404;11.738;2023-04-27T01:12:08;96331.00;;;7.86;69.72
31357;BME280;60001;48.404;11.738;2023-04-27T01:13:39;96335.56;;;7.79;69.04
31357;BME280;60001;48.404;11.738;2023-04-27T01:15:11;96340.22;;;7.88;68.24
31357;BME280;60001;48.404;11.738;2023-04-27T01:16:43;96346.91;;;7.79;68.50
31357;BME280;60001;48.404;11.738;2023-04-27T01:18:15;96338.34;;;7.72;69.52
31357;BME280;60001;48.404;11.738;2023-04-27T01:19:46;96343.13;;;7.75;69.45
31357;BME280;60001;48.404;11.738;2023-04-27T01:21:21;96331.81;;;7.63;69.75
31357;BME280;60001;48.404;11.738;2023-04-27T01:22:53;96323.50;;;7.54;70.64
31357;BME280;60001;48.404;11.738;2023-04-27T01:24:27;96308.66;;;7.60;69.99
31357;BME280;60001;48.404;11.738;2023-04-27T01:25:58;96335.56;;;7.79;70.13
31357;BME280;60001;48.404;11.738;2023-04-27T01:27:31;96324.59;;;7.82;69.84
31357;BME280;60001;48.404;11.738;2023-04-27T01:29:03;96346.59;;;7.92;69.73
31357;BME280;60001;48.404;11.738;2023-04-27T01:30:34;96342.16;;;7.93;70.18
31357;BME280;60001;48.404;11.738;2023-04-27T01:32:05;96314.97;;;7.47;71.60
31357;BME280;60001;48.404;11.738;2023-04-27T01:33:36;96353.16;;;7.78;71.43
31357;BME280;60001;48.404;11.738;2023-04-27T01:35:08;96348.00;;;7.83;70.58
31357;BME280;60001;48.404;11.738;2023-04-27T01:36:40;96317.75;;;7.69;71.17
31357;BME280;60001;48.404;11.738;2023-04-27T01:38:12;96337.00;;;7.98;70.58
31357;BME280;60001;48.404;11.738;2023-04-27T01:39:46;96341.28;;;7.87;70.19
31357;BME280;60001;48.404;11.738;2023-04-27T01:41:17;96337.84;;;7.87;69.80
31357;BME280;60001;48.404;11.738;2023-04-27T01:42:49;96345.75;;;7.75;70.11
31357;BME280;60001;48.404;11.738;2023-04-27T01:44:21;96335.78;;;7.89;69.82
31357;BME280;60001;48.404;11.738;2023-04-27T01:45:53;96339.38;;;8.00;70.33
31357;BME280;60001;48.404;11.738;2023-04-27T01:47:25;96313.84;;;7.83;69.84
31357;BME280;60001;48.404;11.738;2023-04-27T01:48:57;96343.97;;;7.92;69.54
31357;BME280;60001;48.404;11.738;2023-04-27T01:50:29;96339.81;;;7.80;69.95
31357;BME280;60001;48.404;11.738;2023-04-27T01:52:00;96344.03;;;7.69;70.41
31357;BME280;60001;48.404;11.738;2023-04-27T01:53:32;96347.34;;;7.64;70.15
31357;BME280;60001;48.404;11.738;2023-04-27T01:55:07;96333.66;;;7.51;70.64
31357;BME280;60001;48.404;11.738;2023-04-27T01:56:39;96351.06;;;7.52;71.39
31357;BME280;60001;48.404;11.738;2023-04-27T01:58:11;96348.06;;;7.48;71.03
31357;BME280;60001;48.404;11.738;2023-04-27T01:59:43;96348.50;;;7.57;71.40
31357;BME280;60001;48.404;11.738;2023-04-27T02:01:14;96352.72;;;7.58;71.88
31357;BME280;60001;48.404;11.738;2023-04-27T02:02:46;96344.41;;;7.61;72.00
31357;BME280;60001;48.404;11.738;2023-04-27T02:04:20;96351.81;;;7.64;70.81
31357;BME280;60001;48.404;11.738;2023-04-27T02:05:52;96330.22;;;7.62;70.16
31357;BME280;60001;48.404;11.738;2023-04-27T02:07:23;96351.31;;;7.79;69.83
31357;BME280;60001;48.404;11.738;2023-04-27T02:08:55;96354.53;;;7.81;70.49
31357;BME280;60001;48.404;11.738;2023-04-27T02:10:28;96341.16;;;7.82;70.32
31357;BME280;60001;48.404;11.738;2023-04-27T02:12:00;96345.41;;;7.72;71.26
31357;BME280;60001;48.404;11.738;2023-04-27T02:13:32;96360.97;;;7.73;71.30
31357;BME280;60001;48.404;11.738;2023-04-27T02:15:05;96351.38;;;7.67;70.01
31357;BME280;60001;48.404;11.738;2023-04-27T02:16:37;96347.75;;;7.45;68.25
31357;BME280;60001;48.404;11.738;2023-04-27T02:18:09;96335.63;;;7.43;69.22
31357;BME280;60001;48.404;11.738;2023-04-27T02:19:39;96360.59;;;7.69;69.58
31357;BME280;60001;48.404;11.738;2023-04-27T02:21:11;96344.19;;;7.51;69.53
31357;BME280;60001;48.404;11.738;2023-04-27T02:22:43;96358.47;;;7.66;70.45
31357;BME280;60001;48.404;11.738;2023-04-27T02:24:15;96354.78;;;7.79;69.88
31357;BME280;60001;48.404;11.738;2023-04-27T02:25:48;96336.75;;;7.59;70.11
31357;BME280;60001;48.404;11.738;2023-04-27T02:27:21;96335.38;;;7.68;69.77
31357;BME280;60001;48.404;11.738;2023-04-27T02:28:52;96361.09;;;7.66;69.53
31357;BME280;60001;48.404;11.738;2023-04-27T02:30:23;96358.94;;;7.52;70.22
31357;BME280;60001;48.404;11.738;2023-04-27T02:31:55;96359.38;;;7.72;70.43
31357;BME280;60001;48.404;11.738;2023-04-27T02:33:26;96342.22;;;7.69;69.95
31357;BME280;60001;48.404;11.738;2023-04-27T02:34:58;96345.06;;;7.80;69.27
31357;BME280;60001;48.404;11.738;2023-04-27T02:36:30;96356.00;;;7.88;68.48
31357;BME280;60001;48.404;11.738;2023-04-27T02:38:01;96354.91;;;7.73;69.70
31357;BME280;60001;48.404;11.738;2023-04-27T02:39:33;96354.66;;;7.74;69.94
31357;BME280;60001;48.404;11.738;2023-04-27T02:41:05;96354.91;;;7.61;70.67
31357;BME280;60001;48.404;11.738;2023-04-27T02:42:37;96361.28;;;7.77;69.85
31357;BME280;60001;48.404;11.738;2023-04-27T02:44:08;96354.91;;;7.61;70.71
31357;BME280;60001;48.404;11.738;2023-04-27T02:45:40;96348.06;;;7.60;70.12
31357;BME280;60001;48.404;11.738;2023-04-27T02:47:12;96354.56;;;7.69;69.88
31357;BME280;60001;48.404;11.738;2023-04-27T02:48:43;96361.53;;;7.75;69.53
31357;BME280;60001;48.404;11.738;2023-04-27T02:50:15;96359.38;;;7.60;69.79
31357;BME280;60001;48.404;11.738;2023-04-27T02:51:46;96352.84;;;7.63;69.59
31357;BME280;60001;48.404;11.738;2023-04-27T02:53:18;96350.22;;;7.75;68.75
31357;BME280;60001;48.404;11.738;2023-04-27T02:54:49;96360.97;;;7.73;69.11
31357;BME280;60001;48.404;11.738;2023-04-27T02:56:22;96337.31;;;7.50;68.97
31357;BME280;60001;48.404;11.738;2023-04-27T02:57:53;96362.72;;;7.21;70.99
31357;BME280;60001;48.404;11.738;2023-04-27T02:59:25;96344.44;;;7.14;71.53
31357;BME280;60001;48.404;11.738;2023-04-27T03:00:57;96365.00;;;7.40;70.97
31357;BME280;60001;48.404;11.738;2023-04-27T03:02:29;96367.06;;;7.38;69.85
31357;BME280;60001;48.404;11.738;2023-04-27T03:04:01;96362.72;;;7.32;70.06
31357;BME280;60001;48.404;11.738;2023-04-27T03:05:33;96359.28;;;7.20;70.72
31357;BME280;60001;48.404;11.738;2023-04-27T03:07:04;96362.94;;;7.42;69.70
31357;BME280;60001;48.404;11.738;2023-04-27T03:08:35;96353.00;;;7.45;69.47
31357;BME280;60001;48.404;11.738;2023-04-27T03:10:08;96348.44;;;7.40;68.33
31357;BME280;60001;48.404;11.738;2023-04-27T03:11:41;96351.97;;;7.34;68.70
31357;BME280;60001;48.404;11.738;2023-04-27T03:13:13;96363.94;;;7.30;69.13
31357;BME280;60001;48.404;11.738;2023-04-27T03:14:45;96353.22;;;7.20;69.33
31357;BME280;60001;48.404;11.738;2023-04-27T03:16:17;96364.66;;;7.25;69.33
31357;BME280;60001;48.404;11.738;2023-04-27T03:17:49;96361.13;;;7.31;68.46
31357;BME280;60001;48.404;11.738;2023-04-27T03:19:20;96358.38;;;7.26;67.57
31357;BME280;60001;48.404;11.738;2023-04-27T03:20:52;96337.47;;;7.20;69.02
31357;BME280;60001;48.404;11.738;2023-04-27T03:22:24;96321.16;;;7.06;67.50
31357;BME280;60001;48.404;11.738;2023-04-27T03:23:55;96351.41;;;7.20;68.09
31357;BME280;60001;48.404;11.738;2023-04-27T03:25:27;96372.66;;;7.30;67.27
31357;BME280;60001;48.404;11.738;2023-04-27T03:27:00;96345.94;;;7.10;68.39
31357;BME280;60001;48.404;11.738;2023-04-27T03:28:32;96378.47;;;7.21;68.19
31357;BME280;60001;48.404;11.738;2023-04-27T03:30:05;96376.88;;;7.20;68.35
31357;BME280;60001;48.404;11.738;2023-04-27T03:31:37;96374.00;;;6.98;69.08
31357;BME280;60001;48.404;11.738;2023-04-27T03:33:09;96381.78;;;7.04;68.35
31357;BME280;60001;48.404;11.738;2023-04-27T03:34:39;96384.16;;;7.06;68.46
31357;BME280;60001;48.404;11.738;2023-04-27T03:36:11;96378.00;;;7.00;68.16
31357;BME280;60001;48.404;11.738;2023-04-27T03:37:43;96367.56;;;6.70;68.39
31357;BME280;60001;48.404;11.738;2023-04-27T03:39:15;96372.00;;;6.70;67.72
31357;BME280;60001;48.404;11.738;2023-04-27T03:40:47;96370.00;;;6.83;67.94
31357;BME280;60001;48.404;11.738;2023-04-27T03:42:19;96378.56;;;6.91;67.77
31357;BME280;60001;48.404;11.738;2023-04-27T03:43:51;96363.91;;;6.71;68.20
31357;BME280;60001;48.404;11.738;2023-04-27T03:45:23;96352.84;;;6.69;68.42
31357;BME280;60001;48.404;11.738;2023-04-27T03:46:55;96358.53;;;6.66;68.54
31357;BME280;60001;48.404;11.738;2023-04-27T03:48:26;96351.34;;;6.62;68.27
31357;BME280;60001;48.404;11.738;2023-04-27T03:49:57;96387.66;;;6.88;68.72
31357;BME280;60001;48.404;11.738;2023-04-27T03:51:30;96382.22;;;6.90;68.09
31357;BME280;60001;48.404;11.738;2023-04-27T03:53:02;96378.88;;;6.82;68.14
31357;BME280;60001;48.404;11.738;2023-04-27T03:54:33;96375.91;;;6.79;68.32
31357;BME280;60001;48.404;11.738;2023-04-27T03:56:06;96389.59;;;6.81;67.79
31357;BME280;60001;48.404;11.738;2023-04-27T03:57:39;96383.44;;;6.75;68.01
31357;BME280;60001;48.404;11.738;2023-04-27T03:59:11;96385.75;;;6.83;67.97
31357;BME280;60001;48.404;11.738;2023-04-27T04:00:43;96383.78;;;6.79;66.96
31357;BME280;60001;48.404;11.738;2023-04-27T04:02:14;96390.47;;;6.63;67.62
31357;BME280;60001;48.404;11.738;2023-04-27T04:03:46;96383.84;;;6.30;67.96
31357;BME280;60001;48.404;11.738;2023-04-27T04:05:17;96393.78;;;6.28;68.64
31357;BME280;60001;48.404;11.738;2023-04-27T04:06:49;96394.63;;;6.41;69.15
31357;BME280;60001;48.404;11.738;2023-04-27T04:08:21;96397.50;;;6.21;70.18
31357;BME280;60001;48.404;11.738;2023-04-27T04:09:53;96398.00;;;6.11;71.06
31357;BME280;60001;48.404;11.738;2023-04-27T04:11:24;96394.75;;;6.16;70.79
31357;BME280;60001;48.404;11.738;2023-04-27T04:12:58;96402.59;;;6.34;69.75
31357;BME280;60001;48.404;11.738;2023-04-27T04:14:29;96397.53;;;6.32;70.04
31357;BME280;60001;48.404;11.738;2023-04-27T04:16:01;96403.63;;;6.45;69.18
31357;BME280;60001;48.404;11.738;2023-04-27T04:17:33;96403.91;;;6.55;68.72
31357;BME280;60001;48.404;11.738;2023-04-27T04:19:05;96397.25;;;6.41;68.63
31357;BME280;60001;48.404;11.738;2023-04-27T04:20:37;96399.41;;;6.44;68.26
31357;BME280;60001;48.404;11.738;2023-04-27T04:22:07;96399.97;;;6.46;68.46
31357;BME280;60001;48.404;11.738;2023-04-27T04:23:39;96411.09;;;6.59;68.21
31357;BME280;60001;48.404;11.738;2023-04-27T04:25:11;96410.44;;;6.64;68.18
31357;BME280;60001;48.404;11.738;2023-04-27T04:26:43;96407.94;;;6.69;68.38
31357;BME280;60001;48.404;11.738;2023-04-27T04:28:16;96416.34;;;6.59;68.24
31357;BME280;60001;48.404;11.738;2023-04-27T04:29:48;96414.66;;;6.65;68.23
31357;BME280;60001;48.404;11.738;2023-04-27T04:31:20;96416.75;;;6.45;69.40
31357;BME280;60001;48.404;11.738;2023-04-27T04:32:52;96420.69;;;6.66;69.00
31357;BME280;60001;48.404;11.738;2023-04-27T04:34:24;96423.31;;;6.54;69.16
31357;BME280;60001;48.404;11.738;2023-04-27T04:35:56;96424.81;;;6.62;68.78
31357;BME280;60001;48.404;11.738;2023-04-27T04:37:28;96423.72;;;6.51;70.05
31357;BME280;60001;48.404;11.738;2023-04-27T04:39:00;96422.63;;;6.58;69.11
31357;BME280;60001;48.404;11.738;2023-04-27T04:40:32;96426.94;;;6.53;69.88
31357;BME280;60001;48.404;11.738;2023-04-27T04:42:05;96419.34;;;6.33;69.62
31357;BME280;60001;48.404;11.738;2023-04-27T04:43:39;96428.25;;;6.74;68.97
31357;BME280;60001;48.404;11.738;2023-04-27T04:45:11;96418.34;;;6.76;69.28
31357;BME280;60001;48.404;11.738;2023-04-27T04:46:43;96405.56;;;6.79;69.70
31357;BME280;60001;48.404;11.738;2023-04-27T04:48:15;96427.03;;;6.88;69.76
31357;BME280;60001;48.404;11.738;2023-04-27T04:49:47;96412.53;;;6.85;69.32
31357;BME280;60001;48.404;11.738;2023-04-27T04:51:19;96427.16;;;6.93;69.64
31357;BME280;60001;48.404;11.738;2023-04-27T04:52:51;96421.94;;;7.05;69.88
31357;BME280;60001;48.404;11.738;2023-04-27T04:54:23;96412.22;;;6.94;69.77
31357;BME280;60001;48.404;11.738;2023-04-27T04:55:55;96408.31;;;6.84;70.52
31357;BME280;60001;48.404;11.738;2023-04-27T04:57:26;96428.22;;;7.04;70.32
31357;BME280;60001;48.404;11.738;2023-04-27T04:59:00;96424.69;;;6.98;70.30
31357;BME280;60001;48.404;11.738;2023-04-27T05:00:31;96428.59;;;7.19;69.42
31357;BME280;60001;48.404;11.738;2023-04-27T05:02:03;96423.22;;;7.26;69.46
31357;BME280;60001;48.404;11.738;2023-04-27T05:03:35;96425.72;;;7.09;70.97
31357;BME280;60001;48.404;11.738;2023-04-27T05:05:08;96424.13;;;7.08;70.59
31357;BME280;60001;48.404;11.738;2023-04-27T05:06:40;96419.19;;;7.00;70.90
31357;BME280;60001;48.404;11.738;2023-04-27T05:08:12;96411.19;;;6.95;70.79
31357;BME280;60001;48.404;11.738;2023-04-27T05:09:44;96423.09;;;6.97;70.08
31357;BME280;60001;48.404;11.738;2023-04-27T05:11:15;96437.72;;;7.05;70.13
31357;BME280;60001;48.404;11.738;2023-04-27T05:12:47;96442.06;;;7.11;70.24
31357;BME280;60001;48.404;11.738;2023-04-27T05:14:20;96440.69;;;7.20;69.76
31357;BME280;60001;48.404;11.738;2023-04-27T05:15:53;96439.06;;;7.07;69.71
31357;BME280;60001;48.404;11.738;2023-04-27T05:17:25;96449.34;;;6.97;69.33
31357;BME280;60001;48.404;11.738;2023-04-27T05:18:57;96450.47;;;7.01;68.76
31357;BME280;60001;48.404;11.738;2023-04-27T05:20:29;96451.97;;;6.97;68.94
31357;BME280;60001;48.404;11.738;2023-04-27T05:22:00;96459.59;;;6.99;69.49
31357;BME280;60001;48.404;11.738;2023-04-27T05:23:32;96436.00;;;7.10;68.64
31357;BME280;60001;48.404;11.738;2023-04-27T05:25:05;96451.22;;;7.32;68.98
31357;BME280;60001;48.404;11.738;2023-04-27T05:26:36;96445.75;;;7.45;68.74
31357;BME280;60001;48.404;11.738;2023-04-27T05:28:08;96439.22;;;7.48;67.99
31357;BME280;60001;48.404;11.738;2023-04-27T05:29:41;96446.91;;;7.61;67.62
31357;BME280;60001;48.404;11.738;2023-04-27T05:31:13;96431.34;;;7.59;67.05
31357;BME280;60001;48.404;11.738;2023-04-27T05:32:45;96422.31;;;7.43;67.08
31357;BME280;60001;48.404;11.738;2023-04-27T05:34:17;96432.97;;;7.60;66.68
31357;BME280;60001;48.404;11.738;2023-04-27T05:35:49;96446.19;;;7.77;66.46
31357;BME280;60001;48.404;11.738;2023-04-27T05:37:21;96425.06;;;7.72;66.42
31357;BME280;60001;48.404;11.738;2023-04-27T05:38:53;96450.88;;;7.87;66.68
31357;BME280;60001;48.404;11.738;2023-04-27T05:40:25;96453.72;;;7.97;65.30
31357;BME280;60001;48.404;11.738;2023-04-27T05:41:57;96440.69;;;7.79;63.97
31357;BME280;60001;48.404;11.738;2023-04-27T05:43:28;96457.16;;;7.97;63.71
31357;BME280;60001;48.404;11.738;2023-04-27T05:45:02;96457.59;;;8.06;62.51
31357;BME280;60001;48.404;11.738;2023-04-27T05:46:34;96433.84;;;7.89;61.63
31357;BME280;60001;48.404;11.738;2023-04-27T05:48:06;96462.97;;;8.11;61.55
31357;BME280;60001;48.404;11.738;2023-04-27T05:49:40;96458.84;;;8.15;60.78
31357;BME280;60001;48.404;11.738;2023-04-27T05:51:13;96462.69;;;8.24;61.35
31357;BME280;60001;48.404;11.738;2023-04-27T05:52:46;96454.69;;;8.31;61.13
31357;BME280;60001;48.404;11.738;2023-04-27T05:54:17;96466.13;;;8.37;60.67
31357;BME280;60001;48.404;11.738;2023-04-27T05:55:49;96466.38;;;8.35;59.75
31357;BME280;60001;48.404;11.738;2023-04-27T05:57:21;96460.63;;;8.27;59.88
31357;BME280;60001;48.404;11.738;2023-04-27T05:58:53;96469.56;;;8.37;60.21
31357;BME280;60001;48.404;11.738;2023-04-27T06:00:26;96471.81;;;8.34;60.01
31357;BME280;60001;48.404;11.738;2023-04-27T06:01:58;96455.03;;;8.35;60.20
31357;BME280;60001;48.404;11.738;2023-04-27T06:03:30;96478.44;;;8.48;60.08
31357;BME280;60001;48.404;11.738;2023-04-27T06:05:02;96475.13;;;8.52;61.33
31357;BME280;60001;48.404;11.738;2023-04-27T06:06:34;96477.13;;;8.62;61.68
31357;BME280;60001;48.404;11.738;2023-04-27T06:08:06;96468.78;;;8.65;59.96
31357;BME280;60001;48.404;11.738;2023-04-27T06:09:38;96469.81;;;8.64;60.22
31357;BME280;60001;48.404;11.738;2023-04-27T06:11:10;96471.81;;;8.57;60.30
31357;BME280;60001;48.404;11.738;2023-04-27T06:12:42;96470.25;;;8.73;60.70
31357;BME280;60001;48.404;11.738;2023-04-27T06:14:14;96461.56;;;8.72;60.18
31357;BME280;60001;48.404;11.738;2023-04-27T06:15:47;96465.97;;;8.84;59.96
31357;BME280;60001;48.404;11.738;2023-04-27T06:17:20;96440.72;;;8.71;59.49
31357;BME280;60001;48.404;11.738;2023-04-27T06:18:52;96469.72;;;8.88;59.15
31357;BME280;60001;48.404;11.738;2023-04-27T06:20:23;96468.47;;;8.90;60.06
31357;BME280;60001;48.404;11.738;2023-04-27T06:21:55;96468.88;;;8.99;59.03
31357;BME280;60001;48.404;11.738;2023-04-27T06:23:27;96463.84;;;8.97;59.82
31357;BME280;60001;48.404;11.738;2023-04-27T06:24:59;96465.94;;;9.12;59.62
31357;BME280;60001;48.404;11.738;2023-04-27T06:26:31;96465.69;;;9.14;58.90
31357;BME280;60001;48.404;11.738;2023-04-27T06:28:03;96472.00;;;9.13;59.34
31357;BME280;60001;48.404;11.738;2023-04-27T06:29:35;96464.66;;;9.15;58.63
31357;BME280;60001;48.404;11.738;2023-04-27T06:31:10;96476.81;;;9.32;59.33
31357;BME280;60001;48.404;11.738;2023-04-27T06:32:42;96469.13;;;9.31;58.88
31357;BME280;60001;48.404;11.738;2023-04-27T06:34:14;96472.66;;;9.37;58.89
31357;BME280;60001;48.404;11.738;2023-04-27T06:35:46;96439.50;;;9.24;58.23
31357;BME280;60001;48.404;11.738;2023-04-27T06:37:17;96474.72;;;9.51;59.32
31357;BME280;60001;48.404;11.738;2023-04-27T06:38:48;96479.28;;;9.56;58.24
31357;BME280;60001;48.404;11.738;2023-04-27T06:40:20;96475.78;;;9.67;59.04
31357;BME280;60001;48.404;11.738;2023-04-27T06:41:52;96462.75;;;9.60;58.83
31357;BME280;60001;48.404;11.738;2023-04-27T06:43:24;96464.66;;;9.65;58.41
31357;BME280;60001;48.404;11.738;2023-04-27T06:44:56;96471.28;;;9.51;57.30
31357;BME280;60001;48.404;11.738;2023-04-27T06:46:29;96463.72;;;9.54;57.71
31357;BME280;60001;48.404;11.738;2023-04-27T06:48:01;96487.19;;;9.73;57.63
31357;BME280;60001;48.404;11.738;2023-04-27T06:49:33;96466.19;;;9.61;57.87
31357;BME280;60001;48.404;11.738;2023-04-27T06:51:05;96478.56;;;9.77;57.54
31357;BME280;60001;48.404;11.738;2023-04-27T06:52:37;96481.56;;;9.86;57.29
31357;BME280;60001;48.404;11.738;2023-04-27T06:54:08;96467.03;;;9.83;56.24
31357;BME280;60001;48.404;11.738;2023-04-27T06:55:41;96467.03;;;9.83;54.81
31357;BME280;60001;48.404;11.738;2023-04-27T06:57:13;96482.78;;;9.95;53.99
31357;BME280;60001;48.404;11.738;2023-04-27T06:58:45;96469.06;;;9.76;53.76
31357;BME280;60001;48.404;11.738;2023-04-27T07:00:18;96491.50;;;9.96;54.15
31357;BME280;60001;48.404;11.738;2023-04-27T07:01:51;96494.53;;;9.87;56.02
31357;BME280;60001;48.404;11.738;2023-04-27T07:03:23;96487.56;;;9.98;54.77
31357;BME280;60001;48.404;11.738;2023-04-27T07:04:55;96481.41;;;9.93;54.15
31357;BME280;60001;48.404;11.738;2023-04-27T07:06:27;96497.38;;;10.03;52.30
31357;BME280;60001;48.404;11.738;2023-04-27T07:07:59;96496.69;;;9.91;51.19
31357;BME280;60001;48.404;11.738;2023-04-27T07:09:31;96493.25;;;9.90;51.95
31357;BME280;60001;48.404;11.738;2023-04-27T07:11:02;96486.44;;;9.94;52.44
31357;BME280;60001;48.404;11.738;2023-04-27T07:12:34;96500.56;;;10.05;52.47
31357;BME280;60001;48.404;11.738;2023-04-27T07:14:06;96491.25;;;10.19;51.43
31357;BME280;60001;48.404;11.738;2023-04-27T07:15:38;96493.00;;;10.08;51.81
31357;BME280;60001;48.404;11.738;2023-04-27T07:17:11;96491.53;;;10.01;51.08
31357;BME280;60001;48.404;11.738;2023-04-27T07:18:43;96487.63;;;10.03;51.51
31357;BME280;60001;48.404;11.738;2023-04-27T07:20:15;96483.84;;;10.16;51.10
31357;BME280;60001;48.404;11.738;2023-04-27T07:21:47;96489.94;;;10.16;50.92
31357;BME280;60001;48.404;11.738;2023-04-27T07:23:19;96492.72;;;10.27;51.54
31357;BME280;60001;48.404;11.738;2023-04-27T07:24:51;96490.44;;;10.35;51.67
31357;BME280;60001;48.404;11.738;2023-04-27T07:26:23;96487.59;;;10.37;52.27
31357;BME280;60001;48.404;11.738;2023-04-27T07:27:54;96500.34;;;10.45;52.19
31357;BME280;60001;48.404;11.738;2023-04-27T07:29:29;96488.22;;;10.49;52.18
31357;BME280;60001;48.404;11.738;2023-04-27T07:31:03;96485.00;;;10.64;52.46
31357;BME280;60001;48.404;11.738;2023-04-27T07:32:38;96482.97;;;10.71;51.41
31357;BME280;60001;48.404;11.738;2023-04-27T07:34:11;96487.47;;;10.76;51.32
31357;BME280;60001;48.404;11.738;2023-04-27T07:35:42;96485.19;;;10.84;50.12
31357;BME280;60001;48.404;11.738;2023-04-27T07:37:14;96466.41;;;10.81;48.44
31357;BME280;60001;48.404;11.738;2023-04-27T07:38:47;96469.13;;;10.86;48.76
31357;BME280;60001;48.404;11.738;2023-04-27T07:40:19;96466.47;;;10.86;48.97
31357;BME280;60001;48.404;11.738;2023-04-27T07:41:54;96486.81;;;10.85;48.95
31357;BME280;60001;48.404;11.738;2023-04-27T07:43:26;96482.63;;;10.89;49.40
31357;BME280;60001;48.404;11.738;2023-04-27T07:44:58;96487.84;;;10.84;50.25
31357;BME280;60001;48.404;11.738;2023-04-27T07:46:30;96493.03;;;11.01;48.08
31357;BME280;60001;48.404;11.738;2023-04-27T07:48:04;96487.22;;;10.99;49.73
31357;BME280;60001;48.404;11.738;2023-04-27T07:49:36;96501.41;;;10.93;50.32
31357;BME280;60001;48.404;11.738;2023-04-27T07:51:09;96499.16;;;10.80;48.65
31357;BME280;60001;48.404;11.738;2023-04-27T07:52:45;96500.38;;;10.94;49.68
31357;BME280;60001;48.404;11.738;2023-04-27T07:54:17;96498.38;;;11.06;49.39
31357;BME280;60001;48.404;11.738;2023-04-27T07:55:49;96489.53;;;10.95;48.55
31357;BME280;60001;48.404;11.738;2023-04-27T07:57:20;96489.66;;;11.06;48.34
31357;BME280;60001;48.404;11.738;2023-04-27T07:58:52;96474.75;;;10.94;48.64
31357;BME280;60001;48.404;11.738;2023-04-27T08:00:24;96489.16;;;11.09;47.73
31357;BME280;60001;48.404;11.738;2023-04-27T08:01:57;96486.03;;;10.85;48.75
31357;BME280;60001;48.404;11.738;2023-04-27T08:03:30;96473.41;;;10.92;48.59
31357;BME280;60001;48.404;11.738;2023-04-27T08:05:02;96501.91;;;10.90;48.74
31357;BME280;60001;48.404;11.738;2023-04-27T08:06:34;96491.13;;;10.96;48.72
31357;BME280;60001;48.404;11.738;2023-04-27T08:08:05;96490.53;;;11.16;49.46